Time;durP1;ratioP1;P1;durP2;ratioP2;P2;SDS_P1;SDS_P2;PMS_P1;PMS_P2;Temp;Humidity;BMP_temperature;BMP_pressure;BME280_temperature;BME280_humidity;BME280_pressure;Samples;Min_cycle;Max_cycle;Signal;HPM_P1;HPM_P2
2021/01/20 00:02:14;;;;;;;9.63;5.00;;;22.10;30.00;;;;;;6101442;28;80359;-59
2021/01/20 00:05:14;;;;;;;7.03;4.47;;;22.10;30.00;;;;;;6101923;28;80504;-59
2021/01/20 00:08:15;;;;;;;8.45;4.63;;;22.00;30.80;;;;;;6102786;28;81596;-59
2021/01/20 00:11:16;;;;;;;7.72;4.63;;;22.00;30.10;;;;;;6102075;28;80553;-59
2021/01/20 00:14:18;;;;;;;8.52;4.95;;;22.00;30.20;;;;;;6103228;28;80391;-59
2021/01/20 00:17:19;;;;;;;7.95;4.28;;;22.00;30.20;;;;;;6098583;28;82100;-59
2021/01/20 00:20:20;;;;;;;7.47;4.22;;;22.00;30.10;;;;;;6099259;28;80774;-59
2021/01/20 00:23:20;;;;;;;7.53;4.63;;;22.00;30.20;;;;;;6100809;28;80786;-59
2021/01/20 00:26:21;;;;;;;7.35;4.45;;;22.00;30.10;;;;;;6102784;28;80341;-60
2021/01/20 00:29:21;;;;;;;10.65;5.20;;;22.00;30.10;;;;;;6102172;28;80585;-59
2021/01/20 00:32:22;;;;;;;7.10;4.10;;;22.00;30.10;;;;;;6101497;28;80677;-60
2021/01/20 00:35:22;;;;;;;8.48;4.28;;;22.00;30.00;;;;;;6102470;28;80847;-59
2021/01/20 00:38:23;;;;;;;6.65;3.90;;;22.00;30.20;;;;;;6100911;28;80524;-59
2021/01/20 00:41:23;;;;;;;8.38;4.30;;;22.00;30.20;;;;;;6099501;28;80754;-60
2021/01/20 00:44:24;;;;;;;5.97;3.90;;;22.00;30.30;;;;;;6099784;28;80625;-59
2021/01/20 00:47:25;;;;;;;4.93;3.50;;;22.00;30.40;;;;;;6098943;28;80820;-59
2021/01/20 00:50:25;;;;;;;6.95;3.83;;;22.00;30.20;;;;;;6101877;28;81106;-59
2021/01/20 00:53:26;;;;;;;5.63;4.13;;;22.00;30.40;;;;;;6101626;28;81319;-59
2021/01/20 00:56:26;;;;;;;7.22;3.97;;;22.00;30.60;;;;;;6101750;28;80374;-59
2021/01/20 00:59:27;;;;;;;5.90;3.80;;;22.00;30.70;;;;;;6101335;28;80534;-58
2021/01/20 01:02:27;;;;;;;6.55;3.95;;;22.00;30.60;;;;;;6090762;28;81661;-59
2021/01/20 01:05:28;;;;;;;5.03;3.38;;;22.00;30.70;;;;;;6120418;28;83407;-59
2021/01/20 01:08:33;;;;;;;8.15;4.15;;;21.90;30.60;;;;;;6108364;28;83165;-59
2021/01/20 01:11:34;;;;;;;7.35;4.10;;;22.00;30.60;;;;;;6093618;28;82651;-59
2021/01/20 01:14:35;;;;;;;6.60;3.90;;;21.90;30.60;;;;;;6115349;28;83525;-59
2021/01/20 01:17:45;;;;;;;5.07;3.30;;;21.90;30.70;;;;;;6119823;28;82251;-59
2021/01/20 01:20:46;;;;;;;6.10;3.67;;;21.90;30.60;;;;;;6105242;28;80415;-59
2021/01/20 01:23:47;;;;;;;5.32;3.45;;;21.90;31.30;;;;;;6091273;28;82183;-59
2021/01/20 01:26:47;;;;;;;6.43;3.80;;;21.90;30.70;;;;;;6119094;28;83522;-59
2021/01/20 01:29:50;;;;;;;6.18;4.25;;;21.90;30.60;;;;;;6121237;28;81575;-59
2021/01/20 01:33:07;;;;;;;6.47;3.65;;;21.90;30.70;;;;;;6119869;28;87427;-59
2021/01/20 01:36:11;;;;;;;7.47;3.72;;;21.90;30.60;;;;;;6090396;28;83184;-60
2021/01/20 01:39:14;;;;;;;5.97;3.55;;;21.90;30.70;;;;;;6108872;28;83040;-59
2021/01/20 01:42:17;;;;;;;6.38;3.58;;;21.90;30.60;;;;;;6108869;28;83035;-60
2021/01/20 01:45:18;;;;;;;5.95;3.47;;;21.80;30.60;;;;;;6093213;28;83483;-60
2021/01/20 01:48:19;;;;;;;8.23;3.38;;;21.90;30.70;;;;;;6108145;28;81975;-59
2021/01/20 01:51:20;;;;;;;5.22;3.50;;;21.90;30.70;;;;;;6103762;28;82710;-60
2021/01/20 01:54:40;;;;;;;7.15;3.28;;;21.80;30.60;;;;;;6099509;28;81160;-60
2021/01/20 01:58:18;;;;;;;5.00;3.38;;;21.80;30.70;;;;;;6104802;28;81523;-59
2021/01/20 02:01:25;;;;;;;5.85;3.45;;;21.90;30.80;;;;;;6107874;28;81753;-59
2021/01/20 02:04:30;;;;;;;6.45;3.65;;;21.80;30.80;;;;;;6118856;28;82733;-59
2021/01/20 02:07:40;;;;;;;5.25;3.15;;;21.90;30.80;;;;;;6112381;28;82982;-59
2021/01/20 02:10:40;;;;;;;4.93;3.22;;;21.90;30.90;;;;;;6105303;28;80777;-59
2021/01/20 02:13:41;;;;;;;5.88;4.50;;;21.90;30.80;;;;;;6097522;28;80792;-59
2021/01/20 02:17:19;;;;;;;5.45;3.70;;;21.80;30.80;;;;;;6102872;28;84277;-59
2021/01/20 02:20:21;;;;;;;4.90;3.60;;;21.80;31.00;;;;;;6107927;28;83223;-59
2021/01/20 02:23:22;;;;;;;4.93;3.30;;;21.90;31.10;;;;;;6117556;28;83204;-59
2021/01/20 02:26:29;;;;;;;5.28;2.80;;;21.80;31.00;;;;;;6105283;28;81159;-60
2021/01/20 02:30:02;;;;;;;5.90;3.30;;;21.80;31.00;;;;;;6087907;28;83565;-59
2021/01/20 02:33:21;;;;;;;4.15;2.80;;;21.80;31.00;;;;;;6096349;28;80968;-59
2021/01/20 02:36:30;;;;;;;5.70;3.33;;;21.80;31.00;;;;;;6104667;28;81918;-59
2021/01/20 02:39:49;;;;;;;5.45;3.55;;;21.80;31.20;;;;;;6101134;28;80721;-62
2021/01/20 02:43:10;;;;;;;4.75;2.90;;;21.80;31.10;;;;;;6083048;28;80836;-59
2021/01/20 02:46:40;;;;;;;6.50;2.97;;;21.80;31.00;;;;;;6033998;28;83611;-59
2021/01/20 02:49:48;;;;;;;5.78;3.17;;;21.80;31.20;;;;;;6095895;28;83789;-59
2021/01/20 02:52:50;;;;;;;5.53;2.85;;;21.80;31.20;;;;;;6102562;28;81159;-59
2021/01/20 02:56:09;;;;;;;5.82;3.08;;;21.80;31.20;;;;;;6099704;28;80483;-59
2021/01/20 02:59:30;;;;;;;5.20;3.08;;;21.80;31.30;;;;;;6102194;28;82277;-59
2021/01/20 03:02:55;;;;;;;4.55;2.65;;;21.80;31.40;;;;;;6093438;28;80685;-58
2021/01/20 03:05:56;;;;;;;3.25;2.22;;;21.80;31.50;;;;;;6102206;28;80630;-59
2021/01/20 03:08:56;;;;;;;3.22;2.20;;;21.80;31.50;;;;;;6104214;28;80455;-59
2021/01/20 03:11:57;;;;;;;4.50;2.65;;;21.80;31.40;;;;;;6098011;28;81107;-58
2021/01/20 03:14:57;;;;;;;4.65;2.97;;;21.80;31.70;;;;;;6093579;28;82753;-58
2021/01/20 03:17:58;;;;;;;3.75;2.70;;;21.80;31.60;;;;;;6091706;28;83506;-58
2021/01/20 03:20:58;;;;;;;3.67;2.47;;;21.80;31.50;;;;;;6103006;28;80216;-58
2021/01/20 03:23:59;;;;;;;8.57;3.13;;;21.80;31.60;;;;;;6089908;28;80877;-59
2021/01/20 03:26:59;;;;;;;4.32;2.72;;;21.80;31.60;;;;;;6093320;28;80642;-58
2021/01/20 03:30:00;;;;;;;3.45;2.20;;;21.80;31.80;;;;;;6100855;28;80162;-59
2021/01/20 03:33:00;;;;;;;4.13;2.50;;;21.80;31.70;;;;;;6091219;28;86723;-60
2021/01/20 03:36:01;;;;;;;3.35;2.15;;;21.80;31.70;;;;;;6092050;28;80466;-59
2021/01/20 03:39:01;;;;;;;3.80;2.28;;;21.80;31.70;;;;;;6100374;28;85003;-60
2021/01/20 03:42:02;;;;;;;4.50;2.50;;;21.80;31.70;;;;;;6094955;28;80298;-59
2021/01/20 03:45:02;;;;;;;2.38;1.67;;;21.80;31.60;;;;;;6097689;28;81061;-59
2021/01/20 03:48:02;;;;;;;4.75;1.90;;;21.70;31.50;;;;;;6096723;28;80719;-59
2021/01/20 03:51:03;;;;;;;4.50;2.20;;;21.80;31.50;;;;;;6095296;28;80516;-59
2021/01/20 03:54:03;;;;;;;2.78;2.10;;;21.80;31.60;;;;;;6098131;28;81269;-59
2021/01/20 03:57:04;;;;;;;3.47;2.15;;;21.80;31.50;;;;;;6094935;28;80185;-58
2021/01/20 04:00:04;;;;;;;4.53;2.30;;;21.80;31.60;;;;;;6100602;28;83034;-59
2021/01/20 04:03:05;;;;;;;2.55;1.95;;;21.80;31.50;;;;;;6090866;28;80238;-58
2021/01/20 04:06:26;;;;;;;2.40;1.70;;;21.80;31.50;;;;;;6093614;28;80999;-58
2021/01/20 04:09:26;;;;;;;2.72;2.00;;;21.80;31.50;;;;;;6096563;28;81096;-58
2021/01/20 04:12:27;;;;;;;3.53;2.00;;;21.80;31.60;;;;;;6100594;28;80719;-58
2021/01/20 04:15:27;;;;;;;4.38;2.10;;;21.80;31.40;;;;;;6090731;28;80749;-58
2021/01/20 04:18:28;;;;;;;2.65;1.77;;;21.80;31.60;;;;;;6102508;28;80927;-59
2021/01/20 04:21:28;;;;;;;3.88;2.03;;;21.80;31.60;;;;;;6097558;28;81123;-58
2021/01/20 04:24:29;;;;;;;4.60;2.30;;;21.80;31.60;;;;;;6090883;28;80791;-60
2021/01/20 04:27:29;;;;;;;3.28;1.83;;;21.80;31.80;;;;;;6085795;28;80911;-59
2021/01/20 04:30:30;;;;;;;3.03;1.83;;;21.80;31.70;;;;;;6102457;28;84979;-59
2021/01/20 04:33:30;;;;;;;2.92;1.85;;;21.80;31.80;;;;;;6094500;28;80773;-59
2021/01/20 04:36:31;;;;;;;3.88;2.47;;;21.90;31.70;;;;;;6091395;28;83207;-59
2021/01/20 04:39:31;;;;;;;2.53;1.88;;;21.90;31.40;;;;;;6088743;28;81086;-59
2021/01/20 04:42:32;;;;;;;3.45;1.95;;;21.90;31.10;;;;;;6104018;28;80523;-59
2021/01/20 04:45:32;;;;;;;4.38;2.25;;;21.90;30.70;;;;;;6105828;28;81314;-58
2021/01/20 04:48:33;;;;;;;3.70;2.00;;;22.00;30.60;;;;;;6105029;28;81185;-59
2021/01/20 04:51:33;;;;;;;2.28;1.65;;;22.00;30.30;;;;;;6104362;28;82252;-59
2021/01/20 04:54:34;;;;;;;2.67;2.15;;;22.10;30.30;;;;;;6084414;28;80102;-59
2021/01/20 04:57:34;;;;;;;2.65;1.92;;;22.10;30.10;;;;;;6105278;28;80632;-62
2021/01/20 05:00:35;;;;;;;5.22;1.80;;;22.10;30.00;;;;;;6105896;28;80668;-59
2021/01/20 05:03:35;;;;;;;2.88;1.80;;;22.20;30.00;;;;;;6105528;28;82767;-62
2021/01/20 05:06:36;;;;;;;3.15;2.22;;;22.20;30.00;;;;;;6095335;28;80437;-60
2021/01/20 05:09:36;;;;;;;4.63;2.22;;;22.30;30.00;;;;;;6100954;28;81497;-62
2021/01/20 05:12:37;;;;;;;4.55;2.22;;;22.30;30.50;;;;;;6106311;28;80704;-60
2021/01/20 05:15:38;;;;;;;3.63;2.10;;;22.30;30.20;;;;;;6107273;28;80734;-60
2021/01/20 05:18:38;;;;;;;1.98;1.50;;;22.30;31.90;;;;;;6121298;28;83072;-60
2021/01/20 05:21:39;;;;;;;2.20;1.13;;;22.30;32.20;;;;;;6103982;28;81906;-60
2021/01/20 05:24:40;;;;;;;2.95;1.42;;;22.30;34.00;;;;;;6102297;28;80816;-60
2021/01/20 05:27:41;;;;;;;1.67;1.20;;;22.30;33.70;;;;;;6100033;28;83744;-60
2021/01/20 05:30:41;;;;;;;3.92;1.80;;;22.30;34.30;;;;;;6103505;28;80626;-60
2021/01/20 05:33:42;;;;;;;2.92;1.30;;;22.30;35.00;;;;;;6096881;28;80590;-60
2021/01/20 05:36:42;;;;;;;1.90;1.33;;;22.30;35.60;;;;;;6096687;28;80715;-59
2021/01/20 05:39:43;;;;;;;2.55;1.40;;;22.30;36.20;;;;;;6107053;28;80418;-59
2021/01/20 05:42:43;;;;;;;1.85;1.20;;;22.40;36.50;;;;;;6099142;28;81039;-59
2021/01/20 05:45:44;;;;;;;2.60;1.10;;;22.40;37.20;;;;;;6099175;28;80368;-59
2021/01/20 05:48:45;;;;;;;1.88;1.10;;;22.40;37.40;;;;;;6099862;28;80499;-60
2021/01/20 05:51:45;;;;;;;2.33;1.35;;;22.40;37.70;;;;;;6097813;28;80684;-59
2021/01/20 05:54:46;;;;;;;2.30;1.10;;;22.50;38.00;;;;;;6104442;28;80760;-59
2021/01/20 05:57:46;;;;;;;1.60;0.93;;;22.50;38.10;;;;;;6099630;28;80473;-59
2021/01/20 06:00:47;;;;;;;2.58;1.23;;;22.60;37.90;;;;;;6101847;28;80243;-59
2021/01/20 06:03:47;;;;;;;6.43;1.70;;;22.70;38.10;;;;;;6102615;28;80914;-59
2021/01/20 06:06:48;;;;;;;2.33;1.10;;;22.70;38.00;;;;;;6096324;28;80924;-59
2021/01/20 06:09:48;;;;;;;2.58;1.38;;;22.70;38.00;;;;;;6104508;28;81430;-59
2021/01/20 06:12:49;;;;;;;3.05;1.20;;;22.70;38.10;;;;;;6102267;28;81639;-59
2021/01/20 06:15:49;;;;;;;1.48;1.13;;;22.70;37.90;;;;;;6105585;28;83349;-60
2021/01/20 06:18:50;;;;;;;2.20;1.13;;;22.80;38.00;;;;;;6084296;28;82255;-59
2021/01/20 06:21:50;;;;;;;2.45;1.25;;;22.80;38.10;;;;;;6101586;28;80497;-59
2021/01/20 06:24:51;;;;;;;4.97;1.15;;;22.80;37.90;;;;;;6098755;28;80898;-61
2021/01/20 06:27:51;;;;;;;2.42;1.42;;;22.80;37.70;;;;;;6103976;28;80357;-59
2021/01/20 06:30:52;;;;;;;1.75;1.27;;;22.80;38.00;;;;;;6105637;28;80960;-59
2021/01/20 06:33:53;;;;;;;2.05;1.00;;;22.80;37.70;;;;;;6098259;28;81382;-61
2021/01/20 06:36:53;;;;;;;2.58;1.08;;;22.80;38.00;;;;;;6096387;28;80629;-59
2021/01/20 06:39:54;;;;;;;1.52;1.05;;;22.80;37.90;;;;;;6099312;28;80828;-63
2021/01/20 06:42:54;;;;;;;2.25;1.10;;;22.90;37.60;;;;;;6089847;28;80946;-62
2021/01/20 06:45:55;;;;;;;7.68;2.33;;;22.90;37.30;;;;;;6104075;28;80656;-61
2021/01/20 06:48:55;;;;;;;2.35;1.40;;;22.90;37.50;;;;;;6102186;28;81712;-59
2021/01/20 06:51:56;;;;;;;2.55;1.70;;;22.90;37.50;;;;;;6091495;28;83383;-59
2021/01/20 06:54:56;;;;;;;3.85;1.88;;;22.90;37.60;;;;;;6096687;28;80527;-60
2021/01/20 06:57:57;;;;;;;2.10;1.27;;;22.90;37.30;;;;;;6100454;28;81140;-60
2021/01/20 07:00:57;;;;;;;3.17;1.67;;;22.80;37.80;;;;;;6104406;28;80365;-60
2021/01/20 07:03:59;;;;;;;2.67;1.60;;;22.80;37.60;;;;;;6103527;28;81291;-60
2021/01/20 07:06:59;;;;;;;2.95;1.63;;;22.80;37.80;;;;;;6099789;28;80424;-60
2021/01/20 07:10:00;;;;;;;5.43;1.27;;;22.80;37.70;;;;;;6091875;28;83483;-60
2021/01/20 07:13:00;;;;;;;2.33;1.45;;;22.80;37.90;;;;;;6099818;28;80619;-59
2021/01/20 07:16:01;;;;;;;4.38;1.70;;;22.80;36.90;;;;;;6102331;28;80740;-59
2021/01/20 07:19:01;;;;;;;2.95;1.48;;;22.80;36.70;;;;;;6098188;28;81383;-60
2021/01/20 07:22:02;;;;;;;3.72;1.30;;;22.80;36.90;;;;;;6116163;28;82085;-59
2021/01/20 07:25:02;;;;;;;5.13;1.45;;;22.80;37.10;;;;;;6099719;28;80512;-60
2021/01/20 07:28:03;;;;;;;2.50;1.50;;;22.70;37.10;;;;;;6095742;28;81126;-59
2021/01/20 07:31:04;;;;;;;4.10;1.55;;;22.70;37.10;;;;;;6102149;28;80824;-60
2021/01/20 07:34:04;;;;;;;3.05;1.58;;;22.70;37.00;;;;;;6093016;28;86921;-59
2021/01/20 07:37:05;;;;;;;2.50;1.50;;;22.70;37.20;;;;;;6104002;28;80625;-60
2021/01/20 07:40:05;;;;;;;2.97;1.60;;;22.60;37.20;;;;;;6097588;28;82027;-59
2021/01/20 07:43:06;;;;;;;2.60;1.77;;;22.60;37.20;;;;;;6101013;28;81037;-59
2021/01/20 07:46:06;;;;;;;2.35;1.30;;;22.60;37.10;;;;;;6105288;28;81331;-60
2021/01/20 07:49:07;;;;;;;2.97;1.52;;;22.60;37.00;;;;;;6093078;28;80540;-59
2021/01/20 07:52:07;;;;;;;4.25;1.58;;;22.60;37.30;;;;;;6098761;28;81169;-59
2021/01/20 07:55:08;;;;;;;2.00;1.30;;;22.60;37.20;;;;;;6095179;28;81133;-60
2021/01/20 07:58:08;;;;;;;2.53;1.92;;;22.60;37.30;;;;;;6101650;28;80739;-59
2021/01/20 08:01:09;;;;;;;4.22;2.20;;;22.60;37.30;;;;;;6091755;28;81211;-59
2021/01/20 08:04:09;;;;;;;2.53;1.60;;;22.60;37.20;;;;;;6089494;28;81382;-59
2021/01/20 08:07:12;;;;;;;3.30;1.70;;;22.60;37.40;;;;;;6085249;28;80691;-59
2021/01/20 08:10:13;;;;;;;2.70;1.63;;;22.60;36.80;;;;;;6102051;28;81743;-60
2021/01/20 08:13:14;;;;;;;3.35;1.90;;;22.50;37.10;;;;;;6090342;28;80706;-60
2021/01/20 08:16:15;;;;;;;2.40;1.48;;;22.50;36.80;;;;;;6101326;28;86762;-60
2021/01/20 08:19:15;;;;;;;2.90;1.58;;;22.60;37.00;;;;;;6088611;28;81068;-59
2021/01/20 08:22:16;;;;;;;3.85;1.98;;;22.50;37.10;;;;;;6098517;28;80573;-59
2021/01/20 08:25:17;;;;;;;4.25;2.40;;;22.50;37.00;;;;;;6100185;28;81022;-62
2021/01/20 08:28:17;;;;;;;5.18;2.65;;;22.50;37.10;;;;;;6101423;28;80587;-60
2021/01/20 08:31:18;;;;;;;3.42;2.00;;;22.40;37.20;;;;;;6099127;28;80363;-63
2021/01/20 08:34:18;;;;;;;3.05;1.92;;;22.50;37.90;;;;;;6102595;28;81116;-59
2021/01/20 08:37:20;;;;;;;5.18;2.28;;;22.50;37.50;;;;;;6097745;28;81022;-60
2021/01/20 08:40:21;;;;;;;4.20;2.17;;;22.50;37.60;;;;;;6097330;28;80540;-59
2021/01/20 08:43:21;;;;;;;4.30;2.10;;;22.50;37.60;;;;;;6101017;28;80847;-59
2021/01/20 08:46:22;;;;;;;6.25;1.90;;;22.50;37.70;;;;;;6100640;28;80838;-61
2021/01/20 08:49:22;;;;;;;3.25;2.10;;;22.50;37.80;;;;;;6095389;28;84942;-64
2021/01/20 08:52:23;;;;;;;4.10;2.22;;;22.50;37.90;;;;;;6091216;28;81262;-59
2021/01/20 08:55:23;;;;;;;5.38;2.33;;;22.50;37.80;;;;;;6084078;28;80797;-59
2021/01/20 08:58:24;;;;;;;4.22;1.90;;;22.50;37.80;;;;;;6094702;28;80995;-59
2021/01/20 09:01:26;;;;;;;4.22;2.25;;;22.50;38.20;;;;;;6095072;28;81258;-59
2021/01/20 09:04:26;;;;;;;4.85;2.40;;;22.60;38.40;;;;;;6100592;28;80637;-59
2021/01/20 09:07:27;;;;;;;2.78;1.60;;;22.60;38.30;;;;;;6101963;28;80859;-59
2021/01/20 09:10:28;;;;;;;4.45;2.15;;;22.70;38.90;;;;;;6095519;28;80713;-59
2021/01/20 09:13:28;;;;;;;3.60;2.03;;;22.60;38.90;;;;;;6103375;28;80614;-59
2021/01/20 09:16:29;;;;;;;2.80;1.88;;;22.60;38.30;;;;;;6100091;28;81247;-60
2021/01/20 09:19:30;;;;;;;3.92;1.80;;;22.60;38.60;;;;;;6101121;28;81027;-59
2021/01/20 09:22:30;;;;;;;4.15;1.55;;;22.60;38.80;;;;;;6100241;28;80568;-59
2021/01/20 09:25:31;;;;;;;4.30;1.60;;;22.60;38.80;;;;;;6094713;28;80298;-60
2021/01/20 09:28:31;;;;;;;2.78;1.70;;;22.70;38.60;;;;;;6093308;28;80331;-60
2021/01/20 09:31:32;;;;;;;3.90;1.30;;;22.70;38.30;;;;;;6093308;28;80729;-60
2021/01/20 09:34:32;;;;;;;2.00;1.20;;;22.90;38.60;;;;;;6103299;28;82936;-60
2021/01/20 09:37:33;;;;;;;2.63;1.50;;;22.90;38.10;;;;;;6093513;28;80551;-59
2021/01/20 09:40:33;;;;;;;2.72;1.52;;;23.00;38.20;;;;;;6102752;28;80357;-59
2021/01/20 09:43:34;;;;;;;1.85;1.30;;;23.00;37.80;;;;;;6099662;28;81444;-59
2021/01/20 09:46:35;;;;;;;3.28;1.83;;;23.10;37.70;;;;;;6095555;28;80543;-59
2021/01/20 09:49:35;;;;;;;6.15;1.70;;;23.10;37.30;;;;;;6105178;28;88024;-60
2021/01/20 09:52:36;;;;;;;2.60;1.58;;;23.00;37.30;;;;;;6102140;28;80675;-59
2021/01/20 09:55:36;;;;;;;2.03;1.40;;;23.10;37.20;;;;;;6095240;28;80753;-59
2021/01/20 09:58:40;;;;;;;5.40;1.75;;;23.10;36.60;;;;;;6091876;28;80660;-59
2021/01/20 10:01:40;;;;;;;3.08;1.95;;;23.20;36.40;;;;;;6094657;28;82111;-59
2021/01/20 10:04:41;;;;;;;3.22;1.55;;;23.20;36.40;;;;;;6092447;28;80952;-59
2021/01/20 10:07:41;;;;;;;3.28;1.75;;;23.20;36.40;;;;;;6102984;28;81547;-59
2021/01/20 10:10:42;;;;;;;3.30;2.05;;;23.20;36.50;;;;;;6092513;28;80794;-62
2021/01/20 10:13:43;;;;;;;2.35;1.60;;;23.30;36.30;;;;;;6094054;28;80594;-60
2021/01/20 10:16:46;;;;;;;4.85;1.75;;;23.30;36.60;;;;;;6103070;28;80962;-60
2021/01/20 10:19:47;;;;;;;3.65;1.75;;;23.30;36.80;;;;;;6100222;28;81270;-59
2021/01/20 10:22:47;;;;;;;3.88;1.50;;;23.30;36.90;;;;;;6100132;28;83035;-62
2021/01/20 10:25:48;;;;;;;3.17;1.63;;;23.30;37.00;;;;;;6092921;28;80651;-62
2021/01/20 10:28:48;;;;;;;2.72;1.80;;;23.30;36.70;;;;;;6099545;28;81792;-63
2021/01/20 10:31:50;;;;;;;4.22;1.60;;;23.30;37.40;;;;;;6101764;28;80469;-63
2021/01/20 10:34:50;;;;;;;3.20;1.83;;;23.20;36.70;;;;;;6094031;28;82732;-60
2021/01/20 10:37:51;;;;;;;3.13;1.77;;;23.20;37.10;;;;;;6069721;28;81329;-59
2021/01/20 10:40:51;;;;;;;5.60;1.92;;;23.20;37.40;;;;;;6092149;28;82791;-59
2021/01/20 10:43:52;;;;;;;2.65;1.55;;;23.20;37.90;;;;;;6098505;28;80751;-60
2021/01/20 10:46:52;;;;;;;2.90;1.50;;;23.10;37.80;;;;;;6100068;28;80918;-59
2021/01/20 10:49:53;;;;;;;3.55;1.83;;;23.20;37.60;;;;;;6102280;28;81609;-59
2021/01/20 10:52:54;;;;;;;3.45;1.50;;;23.20;37.60;;;;;;6101295;28;81491;-59
2021/01/20 10:55:54;;;;;;;6.47;2.03;;;23.20;37.60;;;;;;6103663;28;80767;-59
2021/01/20 10:58:55;;;;;;;2.80;1.77;;;23.20;37.60;;;;;;6100233;28;80868;-59
2021/01/20 11:01:55;;;;;;;2.33;1.52;;;23.20;37.50;;;;;;6105602;28;81919;-59
2021/01/20 11:04:56;;;;;;;6.82;2.38;;;23.20;37.20;;;;;;6070905;28;80539;-59
2021/01/20 11:07:56;;;;;;;3.00;1.80;;;23.30;36.80;;;;;;6096784;28;81131;-59
2021/01/20 11:10:57;;;;;;;4.72;2.45;;;23.30;36.80;;;;;;6099279;28;81634;-62
2021/01/20 11:13:58;;;;;;;5.40;2.80;;;23.20;36.30;;;;;;6100672;28;80773;-59
2021/01/20 11:16:58;;;;;;;5.45;1.98;;;23.20;36.10;;;;;;6103899;28;80785;-59
2021/01/20 11:19:59;;;;;;;3.67;2.33;;;23.20;35.60;;;;;;6100486;28;80347;-58
2021/01/20 11:22:59;;;;;;;7.13;2.22;;;23.10;35.10;;;;;;6091610;28;80658;-59
2021/01/20 11:26:00;;;;;;;3.75;2.15;;;23.10;35.10;;;;;;6088217;28;81990;-60
2021/01/20 11:29:00;;;;;;;7.90;2.72;;;23.10;35.30;;;;;;6092380;28;81222;-59
2021/01/20 11:32:01;;;;;;;8.70;2.92;;;23.10;35.00;;;;;;6091894;28;80228;-59
2021/01/20 11:35:02;;;;;;;5.10;2.55;;;23.10;34.70;;;;;;6090338;28;81705;-59
2021/01/20 11:38:02;;;;;;;3.13;2.15;;;23.10;34.30;;;;;;6097373;28;81420;-60
2021/01/20 11:41:03;;;;;;;9.05;2.60;;;23.10;33.90;;;;;;6097269;28;81238;-59
2021/01/20 11:44:03;;;;;;;5.60;3.45;;;23.10;34.20;;;;;;6091461;28;80501;-60
2021/01/20 11:47:04;;;;;;;5.93;3.53;;;23.10;34.30;;;;;;6102813;28;81534;-60
2021/01/20 11:50:05;;;;;;;5.78;3.20;;;23.20;34.30;;;;;;6101538;28;80385;-60
2021/01/20 11:53:05;;;;;;;6.88;3.42;;;23.10;34.50;;;;;;6102496;28;81332;-60
2021/01/20 11:56:06;;;;;;;12.57;4.00;;;23.20;34.50;;;;;;6099499;28;80898;-60
2021/01/20 11:59:06;;;;;;;7.18;3.70;;;23.20;34.70;;;;;;6095845;28;80721;-61
2021/01/20 12:02:07;;;;;;;10.43;4.18;;;23.20;34.60;;;;;;6081913;28;81375;-61
2021/01/20 12:05:08;;;;;;;5.72;3.58;;;23.20;34.30;;;;;;6100526;28;82600;-61
2021/01/20 12:08:09;;;;;;;9.35;3.88;;;23.20;34.40;;;;;;6096099;28;81399;-64
2021/01/20 12:11:09;;;;;;;9.65;3.83;;;23.30;34.40;;;;;;6098001;28;80917;-60
2021/01/20 12:14:10;;;;;;;10.38;4.47;;;23.20;34.10;;;;;;6103713;28;81454;-60
2021/01/20 12:17:10;;;;;;;12.68;3.65;;;23.20;34.20;;;;;;6099661;28;81509;-62
2021/01/20 12:20:11;;;;;;;11.38;3.90;;;23.30;34.00;;;;;;6101929;28;84473;-60
2021/01/20 12:23:12;;;;;;;8.23;3.42;;;23.20;33.70;;;;;;6101240;28;81177;-59
2021/01/20 12:26:12;;;;;;;9.00;3.78;;;23.30;33.80;;;;;;6093267;28;80336;-59
2021/01/20 12:29:13;;;;;;;6.65;3.83;;;23.30;33.10;;;;;;6107235;28;81158;-59
2021/01/20 12:32:13;;;;;;;12.25;3.97;;;23.30;33.00;;;;;;6092343;28;80793;-60
2021/01/20 12:35:14;;;;;;;9.98;3.50;;;23.30;33.20;;;;;;6090610;28;81672;-59
2021/01/20 12:38:14;;;;;;;8.00;3.55;;;23.40;32.90;;;;;;6098846;28;80585;-59
2021/01/20 12:41:15;;;;;;;9.10;4.00;;;23.40;33.20;;;;;;6086557;28;81685;-59
2021/01/20 12:44:15;;;;;;;9.48;3.90;;;23.50;33.10;;;;;;6097673;28;80517;-59
2021/01/20 12:47:16;;;;;;;11.02;3.88;;;23.50;32.90;;;;;;6098133;28;84177;-59
2021/01/20 12:50:17;;;;;;;7.78;3.83;;;23.50;32.80;;;;;;6100448;28;80822;-59
2021/01/20 12:53:18;;;;;;;9.90;4.20;;;23.60;32.70;;;;;;6099868;28;80839;-59
2021/01/20 12:56:18;;;;;;;9.65;3.40;;;23.70;32.70;;;;;;6093814;28;81201;-60
2021/01/20 12:59:19;;;;;;;8.70;4.00;;;23.70;32.50;;;;;;6097068;28;80502;-61
2021/01/20 13:02:19;;;;;;;11.85;3.80;;;23.70;32.40;;;;;;6105678;28;80748;-60
2021/01/20 13:05:20;;;;;;;7.20;3.65;;;23.70;32.30;;;;;;6103253;28;80900;-61
2021/01/20 13:08:20;;;;;;;5.53;3.55;;;23.80;32.20;;;;;;6106419;28;81316;-60
2021/01/20 13:11:21;;;;;;;8.88;3.13;;;23.90;32.20;;;;;;6096073;28;80405;-60
2021/01/20 13:14:22;;;;;;;7.55;4.07;;;24.00;31.60;;;;;;6104394;28;80672;-60
2021/01/20 13:17:23;;;;;;;8.27;4.03;;;24.10;31.30;;;;;;6096311;28;81136;-60
2021/01/20 13:20:24;;;;;;;15.43;4.10;;;24.20;31.80;;;;;;6104819;28;80616;-61
2021/01/20 13:23:26;;;;;;;11.20;3.40;;;24.40;31.40;;;;;;6107352;28;80616;-61
2021/01/20 13:26:27;;;;;;;8.90;4.13;;;24.50;31.50;;;;;;6099060;28;80894;-61
2021/01/20 13:29:27;;;;;;;7.43;3.28;;;24.50;31.20;;;;;;6105366;28;80318;-61
2021/01/20 13:32:28;;;;;;;7.50;3.65;;;24.50;31.60;;;;;;6099788;28;81774;-61
2021/01/20 13:35:29;;;;;;;12.48;3.67;;;24.50;31.70;;;;;;6102957;28;80339;-61
2021/01/20 13:38:29;;;;;;;5.85;3.22;;;24.60;31.40;;;;;;6102648;28;80695;-61
2021/01/20 13:41:30;;;;;;;7.45;3.40;;;24.60;31.50;;;;;;6089205;28;80784;-60
2021/01/20 13:44:30;;;;;;;7.63;4.20;;;24.60;31.40;;;;;;6101750;28;81272;-60
2021/01/20 13:47:31;;;;;;;11.40;4.10;;;24.50;31.70;;;;;;6100698;28;81234;-60
2021/01/20 13:50:31;;;;;;;9.30;4.07;;;24.50;31.70;;;;;;6102788;28;80903;-59
2021/01/20 13:53:32;;;;;;;9.77;3.88;;;24.40;31.10;;;;;;6105404;28;80610;-59
2021/01/20 13:56:33;;;;;;;9.88;3.38;;;24.40;31.70;;;;;;6100182;28;80387;-60
2021/01/20 13:59:33;;;;;;;10.57;4.18;;;24.40;31.10;;;;;;6095939;28;80875;-65
2021/01/20 14:02:34;;;;;;;8.68;3.55;;;24.30;31.40;;;;;;6103928;28;84297;-65
2021/01/20 14:05:34;;;;;;;8.32;4.10;;;24.30;31.10;;;;;;6103386;28;81171;-60
2021/01/20 14:08:35;;;;;;;5.82;3.17;;;24.20;31.10;;;;;;6102366;28;80421;-59
2021/01/20 14:11:35;;;;;;;9.93;3.85;;;24.30;31.00;;;;;;6105280;28;80718;-61
2021/01/20 14:14:36;;;;;;;7.60;3.83;;;24.30;31.10;;;;;;6101926;28;80277;-60
2021/01/20 14:17:37;;;;;;;9.07;3.75;;;24.30;31.40;;;;;;6102346;28;81225;-60
2021/01/20 14:20:37;;;;;;;7.88;3.25;;;24.30;30.90;;;;;;6099861;28;80956;-59
2021/01/20 14:23:41;;;;;;;6.97;3.90;;;24.30;31.20;;;;;;6101300;28;80735;-59
2021/01/20 14:26:47;;;;;;;12.98;4.65;;;24.30;31.30;;;;;;6100236;28;80483;-59
2021/01/20 14:29:47;;;;;;;6.60;3.28;;;24.20;31.60;;;;;;6104311;28;80816;-60
2021/01/20 14:32:48;;;;;;;6.47;3.53;;;24.20;31.70;;;;;;6100645;28;82246;-59
2021/01/20 14:35:49;;;;;;;7.85;4.07;;;24.10;31.50;;;;;;6097347;28;81839;-59
2021/01/20 14:38:49;;;;;;;6.72;3.95;;;24.10;31.80;;;;;;6104941;28;81140;-59
2021/01/20 14:41:50;;;;;;;10.25;3.95;;;24.00;31.80;;;;;;6115287;28;80402;-59
2021/01/20 14:44:50;;;;;;;9.18;3.58;;;24.00;31.90;;;;;;6094994;28;80801;-59
2021/01/20 14:47:51;;;;;;;7.00;3.25;;;23.90;31.80;;;;;;6101436;28;80728;-59
2021/01/20 14:50:51;;;;;;;8.13;3.80;;;23.90;31.90;;;;;;6089022;28;80150;-59
2021/01/20 14:53:52;;;;;;;6.25;3.58;;;23.90;31.80;;;;;;6104303;28;80611;-59
2021/01/20 14:56:52;;;;;;;6.80;3.70;;;23.90;31.80;;;;;;6087645;28;80945;-59
2021/01/20 14:59:53;;;;;;;7.03;3.53;;;23.80;31.90;;;;;;6103577;28;80897;-59
2021/01/20 15:02:54;;;;;;;8.40;4.03;;;23.70;32.10;;;;;;6101550;28;81645;-59
2021/01/20 15:05:54;;;;;;;13.60;4.28;;;23.60;32.00;;;;;;6092636;28;80449;-58
2021/01/20 15:08:55;;;;;;;8.40;3.90;;;23.50;31.90;;;;;;6096505;28;81788;-59
2021/01/20 15:11:55;;;;;;;7.28;3.45;;;23.50;31.90;;;;;;6104233;28;80856;-59
2021/01/20 15:14:56;;;;;;;7.65;3.53;;;23.40;31.80;;;;;;6103484;28;80605;-65
2021/01/20 15:17:56;;;;;;;7.80;3.55;;;23.50;31.90;;;;;;6102761;28;80585;-60
2021/01/20 15:20:57;;;;;;;11.88;3.50;;;23.50;31.90;;;;;;6097035;28;80745;-60
2021/01/20 15:23:57;;;;;;;6.78;3.88;;;23.60;32.70;;;;;;6098437;28;80918;-60
2021/01/20 15:26:58;;;;;;;14.73;4.20;;;23.60;32.70;;;;;;6097239;28;80716;-59
2021/01/20 15:29:58;;;;;;;7.57;4.40;;;23.60;32.90;;;;;;6103298;28;81069;-59
2021/01/20 15:32:59;;;;;;;10.40;4.53;;;23.60;32.60;;;;;;6096787;28;82099;-59
2021/01/20 15:36:00;;;;;;;10.52;4.32;;;23.60;32.60;;;;;;6102678;28;87554;-61
2021/01/20 15:39:00;;;;;;;10.38;4.45;;;23.60;32.60;;;;;;6100608;28;81290;-61
2021/01/20 15:42:01;;;;;;;14.48;5.25;;;23.60;32.70;;;;;;6100130;28;80427;-61
2021/01/20 15:45:01;;;;;;;11.30;5.50;;;23.60;32.80;;;;;;6100393;28;82960;-61